CO60 weather

Horseshoe Landings Airport
Keenesburg, Colorado, United States

Public forecast

Using degrees Fahrenheit for public forecast. Weather courtesy of forecast.io.

METAR (pilot weather report)

Closest report is Denver International Airport, 18.5 nm (34.3 km) SW. Retrieved 2019/08/19 11:53 UTC (1 hour ago):

KDEN 191153Z 24007KT 10SM FEW120 BKN240 18/06 A3009 RMK AO2 SLP098 T01830061 10222 20161 53013 $

TAF (pilot weather forecast)

Closest forecast is Denver International Airport, 18.5 nm (34.3 km) SW. Retrieved 2019/08/19 12:30 UTC (28 minutes ago):

TAF KDEN 191127Z 1912/2018 25008KT P6SM FEW120 BKN220 FM191600 31005KT P6SM FEW120 SCT220 FM191900 06008KT P6SM FEW120 BKN220 FM200200 10008KT P6SM SCT120 BKN220 FM200500 19008KT P6SM FEW120 SCT220 FM201500 31006KT P6SM FEW120 SCT220